Time;durP1;ratioP1;P1;durP2;ratioP2;P2;SDS_P1;SDS_P2;PMS_P1;PMS_P2;Temp;Humidity;BMP_temperature;BMP_pressure;BME280_temperature;BME280_humidity;BME280_pressure;Samples;Min_cycle;Max_cycle;Signal;HPM_P1;HPM_P2
2024/03/06 00:02:13;;;;;;;0.43;0.22;;;;;;;6.43;100.00;97972.09;4996492;28;20034;-65
2024/03/06 00:04:41;;;;;;;0.32;0.20;;;;;;;6.64;100.00;97974.53;4978531;28;20456;-66
2024/03/06 00:07:06;;;;;;;1.55;0.30;;;;;;;6.69;100.00;97977.53;4976338;28;20045;-65
2024/03/06 00:09:34;;;;;;;0.30;0.20;;;;;;;6.58;100.00;97960.41;4980891;28;20041;-66
2024/03/06 00:11:59;;;;;;;0.50;0.20;;;;;;;6.34;100.00;97924.66;4962145;28;20085;-67
2024/03/06 00:14:25;;;;;;;0.73;0.20;;;;;;;6.63;100.00;97965.19;4977507;28;20761;-66
2024/03/06 00:16:55;;;;;;;0.52;0.20;;;;;;;6.53;100.00;97967.72;4990022;28;20137;-67
2024/03/06 00:19:23;;;;;;;0.20;0.20;;;;;;;6.58;100.00;97967.34;4973645;28;20053;-64
2024/03/06 00:21:49;;;;;;;0.98;0.10;;;;;;;6.64;100.00;97975.34;4998557;28;20058;-66
2024/03/06 00:24:18;;;;;;;0.52;0.20;;;;;;;6.65;100.00;97968.44;4994192;28;20041;-66
2024/03/06 00:26:47;;;;;;;3.03;0.40;;;;;;;6.63;100.00;97976.31;4961431;28;20037;-65
2024/03/06 00:29:12;;;;;;;0.70;0.20;;;;;;;6.64;100.00;97980.53;4972394;28;20915;-66
2024/03/06 00:31:42;;;;;;;0.43;0.20;;;;;;;6.28;100.00;97941.50;4981908;28;20069;-66
2024/03/06 00:34:08;;;;;;;0.93;0.30;;;;;;;6.61;100.00;97980.81;4971909;28;20042;-66
2024/03/06 00:36:37;;;;;;;0.77;0.30;;;;;;;6.49;100.00;97987.84;4975327;28;20305;-65
2024/03/06 00:39:07;;;;;;;0.73;0.25;;;;;;;6.48;100.00;97993.16;4984153;28;20038;-65
2024/03/06 00:41:34;;;;;;;2.15;0.35;;;;;;;6.45;100.00;97989.06;4978318;28;20421;-65
2024/03/06 00:43:59;;;;;;;0.47;0.30;;;;;;;6.49;100.00;97976.72;4984927;28;20033;-65
2024/03/06 00:46:27;;;;;;;1.23;0.30;;;;;;;6.52;100.00;97985.00;4995866;28;21483;-66
2024/03/06 00:48:52;;;;;;;0.30;0.20;;;;;;;6.66;100.00;97980.38;4980444;28;20041;-65
2024/03/06 00:51:18;;;;;;;1.10;0.30;;;;;;;6.76;100.00;97970.06;4982925;28;20065;-65
2024/03/06 00:53:46;;;;;;;1.10;0.38;;;;;;;6.72;100.00;97969.53;4984518;28;20491;-64
2024/03/06 00:56:14;;;;;;;1.05;0.35;;;;;;;6.58;100.00;97933.75;4978077;28;20037;-65
2024/03/06 00:58:42;;;;;;;0.95;0.40;;;;;;;6.71;100.00;97962.72;4978100;28;20041;-65
2024/03/06 01:01:07;;;;;;;0.60;0.20;;;;;;;6.70;100.00;97959.31;4979485;28;20057;-64
2024/03/06 01:03:35;;;;;;;0.50;0.20;;;;;;;6.88;100.00;97976.72;4994829;28;20038;-66
2024/03/06 01:06:01;;;;;;;1.23;0.28;;;;;;;6.86;100.00;97961.38;4958902;28;20066;-66
2024/03/06 01:08:26;;;;;;;0.95;0.35;;;;;;;6.78;100.00;97961.22;4977666;28;20134;-66
2024/03/06 01:10:54;;;;;;;0.95;0.30;;;;;;;6.86;100.00;97963.13;4964157;28;20037;-65
2024/03/06 01:13:22;;;;;;;0.63;0.20;;;;;;;6.69;100.00;97928.44;4960624;28;20038;-65
2024/03/06 01:15:48;;;;;;;0.30;0.20;;;;;;;6.84;100.00;97949.53;4996735;28;20118;-64
2024/03/06 01:18:16;;;;;;;0.50;0.20;;;;;;;6.67;100.00;97909.69;4990211;28;20927;-65
2024/03/06 01:20:41;;;;;;;1.48;0.30;;;;;;;6.75;100.00;97948.56;4967964;28;20137;-65
2024/03/06 01:23:08;;;;;;;0.82;0.43;;;;;;;6.64;100.00;97964.22;4995922;28;20095;-65
2024/03/06 01:25:36;;;;;;;1.05;0.43;;;;;;;6.36;100.00;97922.75;4962729;28;20729;-65
2024/03/06 01:28:02;;;;;;;1.45;0.55;;;;;;;6.55;100.00;97958.09;4972942;28;20049;-65
2024/03/06 01:30:30;;;;;;;0.80;0.35;;;;;;;6.31;100.00;97917.16;4988804;28;20074;-65
2024/03/06 01:32:55;;;;;;;1.25;0.40;;;;;;;6.56;100.00;97971.84;4965721;28;20046;-64
2024/03/06 01:35:20;;;;;;;1.98;0.60;;;;;;;6.71;100.00;97960.94;4963173;28;20048;-65
2024/03/06 01:37:46;;;;;;;1.33;0.40;;;;;;;6.72;100.00;97946.28;4982763;28;20037;-65
2024/03/06 01:40:14;;;;;;;1.23;0.68;;;;;;;6.71;100.00;97936.88;4962257;28;20722;-65
2024/03/06 01:42:39;;;;;;;1.25;0.40;;;;;;;6.71;100.00;97932.53;4991101;28;20412;-63
2024/03/06 01:45:05;;;;;;;1.80;0.50;;;;;;;6.71;100.00;97948.03;4993599;28;20052;-65
2024/03/06 01:47:31;;;;;;;2.35;0.70;;;;;;;6.56;100.00;97907.25;4979970;28;20115;-65
2024/03/06 01:49:56;;;;;;;1.17;0.40;;;;;;;6.73;100.00;97953.06;4978923;28;20504;-65
2024/03/06 01:52:22;;;;;;;2.33;0.50;;;;;;;6.82;100.00;97947.06;4982803;28;20033;-65
2024/03/06 01:54:48;;;;;;;1.67;0.52;;;;;;;6.78;100.00;97932.00;4968903;28;20046;-64
2024/03/06 01:57:15;;;;;;;0.93;0.40;;;;;;;6.81;100.00;97937.69;4979323;28;20038;-64
2024/03/06 01:59:42;;;;;;;1.48;0.40;;;;;;;6.82;100.00;97933.34;4975583;28;20571;-64
2024/03/06 02:02:08;;;;;;;1.98;0.52;;;;;;;6.91;100.00;97935.91;4978055;28;20041;-65
2024/03/06 02:04:33;;;;;;;1.35;0.43;;;;;;;6.89;100.00;97948.16;4980505;28;20103;-65
2024/03/06 02:06:59;;;;;;;1.17;0.50;;;;;;;6.74;100.00;97937.44;4983191;28;20034;-65
2024/03/06 02:09:24;;;;;;;2.17;0.70;;;;;;;6.70;100.00;97930.91;4984411;28;20041;-65
2024/03/06 02:11:55;;;;;;;1.75;0.60;;;;;;;6.85;100.00;97930.50;4963594;28;20052;-64
2024/03/06 02:14:26;;;;;;;1.70;0.57;;;;;;;6.93;100.00;97944.34;5000918;28;20041;-64
2024/03/06 02:16:51;;;;;;;1.85;0.57;;;;;;;6.72;100.00;97903.16;4982468;28;20036;-65
2024/03/06 02:19:17;;;;;;;2.25;0.50;;;;;;;6.70;100.00;97915.41;4979690;28;20038;-65
2024/03/06 02:21:42;;;;;;;1.08;0.40;;;;;;;6.73;100.00;97912.56;4991334;28;20671;-65
2024/03/06 02:24:13;;;;;;;1.20;0.40;;;;;;;6.98;100.00;97954.28;4982261;28;20117;-64
2024/03/06 02:26:40;;;;;;;1.25;0.40;;;;;;;7.16;100.00;97959.56;4962899;28;20030;-64
2024/03/06 02:29:10;;;;;;;0.93;0.40;;;;;;;7.13;100.00;97949.47;4977912;28;20042;-65
2024/03/06 02:31:36;;;;;;;0.68;0.30;;;;;;;7.19;100.00;97948.09;4977034;28;20042;-64
2024/03/06 02:34:06;;;;;;;0.93;0.32;;;;;;;7.32;100.00;97941.69;4984658;28;20034;-65
2024/03/06 02:36:32;;;;;;;1.08;0.40;;;;;;;7.07;100.00;97888.81;4981003;28;20038;-65
2024/03/06 02:39:08;;;;;;;0.70;0.28;;;;;;;7.23;100.00;97888.22;4975275;28;20038;-66
2024/03/06 02:41:36;;;;;;;0.70;0.30;;;;;;;7.38;100.00;97891.16;4996935;28;20046;-64
2024/03/06 02:44:04;;;;;;;1.30;0.40;;;;;;;7.63;100.00;97920.75;4961795;28;20033;-65
2024/03/06 02:46:29;;;;;;;0.40;0.20;;;;;;;7.68;100.00;97928.91;4996887;28;20042;-65
2024/03/06 02:49:02;;;;;;;0.65;0.30;;;;;;;7.73;100.00;97928.47;4972657;28;20065;-66
2024/03/06 02:51:27;;;;;;;0.40;0.20;;;;;;;7.46;100.00;97883.50;4989367;28;20516;-66
2024/03/06 02:53:55;;;;;;;2.05;0.30;;;;;;;7.72;100.00;97918.25;4955046;28;20212;-67
2024/03/06 02:56:21;;;;;;;1.55;0.50;;;;;;;7.69;100.00;97927.13;4979425;28;20095;-64
2024/03/06 02:58:46;;;;;;;0.35;0.20;;;;;;;7.63;100.00;97925.09;4991718;28;20401;-65
2024/03/06 03:01:15;;;;;;;1.70;0.50;;;;;;;7.45;100.00;97894.81;4972706;28;20042;-64
2024/03/06 03:03:43;;;;;;;1.20;0.50;;;;;;;7.51;100.00;97927.88;4982868;28;20494;-66
2024/03/06 03:06:09;;;;;;;1.58;0.50;;;;;;;7.44;100.00;97929.38;4986289;28;20042;-65
2024/03/06 03:08:37;;;;;;;1.65;0.50;;;;;;;7.40;100.00;97933.22;4975998;28;20072;-65
2024/03/06 03:11:02;;;;;;;0.75;0.30;;;;;;;7.23;100.00;97892.59;4960005;28;20037;-67
2024/03/06 03:13:30;;;;;;;1.02;0.30;;;;;;;7.58;100.00;97941.06;4977267;28;20092;-65
2024/03/06 03:15:56;;;;;;;0.40;0.22;;;;;;;7.70;100.00;97958.03;4979367;28;20462;-66
2024/03/06 03:18:22;;;;;;;0.60;0.30;;;;;;;7.74;100.00;97966.34;4978501;28;20045;-66
2024/03/06 03:20:47;;;;;;;2.25;0.20;;;;;;;7.96;100.00;97974.66;4971747;28;20041;-66
2024/03/06 03:23:15;;;;;;;1.33;0.20;;;;;;;8.20;100.00;97967.19;4973922;28;20100;-66
2024/03/06 03:25:41;;;;;;;1.40;0.22;;;;;;;7.76;100.00;97925.59;4976337;28;20038;-65
2024/03/06 03:28:06;;;;;;;0.60;0.30;;;;;;;7.78;100.00;97939.22;4966453;28;21287;-72
2024/03/06 03:30:34;;;;;;;0.45;0.28;;;;;;;7.75;100.00;97944.66;4977561;28;20048;-65
2024/03/06 03:32:59;;;;;;;0.28;0.20;;;;;;;7.70;100.00;97931.34;4975446;28;20113;-66
2024/03/06 03:35:28;;;;;;;0.85;0.30;;;;;;;7.68;100.00;97928.06;4957829;28;20115;-66
2024/03/06 03:37:56;;;;;;;0.45;0.20;;;;;;;7.64;100.00;97937.91;4970221;28;20052;-69
2024/03/06 03:40:22;;;;;;;0.45;0.20;;;;;;;7.65;100.00;97943.91;4974165;28;20108;-66
2024/03/06 03:42:50;;;;;;;1.85;0.30;;;;;;;7.62;100.00;97947.56;4961134;28;20259;-65
2024/03/06 03:45:15;;;;;;;1.60;0.45;;;;;;;7.50;100.00;97946.13;4970206;28;20049;-67
2024/03/06 03:47:46;;;;;;;1.13;0.30;;;;;;;7.32;100.00;97956.41;4977794;28;20038;-65
2024/03/06 03:50:12;;;;;;;1.35;0.20;;;;;;;7.21;100.00;97935.84;4990356;28;20044;-67
2024/03/06 03:52:41;;;;;;;1.17;0.30;;;;;;;7.34;100.00;97951.91;4953666;28;20046;-66
2024/03/06 03:55:07;;;;;;;1.00;0.28;;;;;;;7.24;100.00;97948.50;4977641;28;20038;-65
2024/03/06 03:57:35;;;;;;;2.70;0.65;;;;;;;7.27;100.00;97956.81;4960629;28;20041;-67
2024/03/06 04:00:00;;;;;;;2.58;0.60;;;;;;;7.31;100.00;97947.00;4971364;28;20119;-69
2024/03/06 04:02:30;;;;;;;3.92;1.40;;;;;;;7.01;100.00;97910.06;4965119;28;20065;-66
2024/03/06 04:04:55;;;;;;;2.88;0.75;;;;;;;7.25;100.00;97958.72;4958824;28;20073;-64
2024/03/06 04:07:21;;;;;;;4.70;0.70;;;;;;;7.11;100.00;97961.75;4974151;28;20103;-67
2024/03/06 04:09:47;;;;;;;2.67;0.80;;;;;;;6.87;100.00;97942.31;4962300;28;20719;-67
2024/03/06 04:12:15;;;;;;;1.80;0.60;;;;;;;6.79;100.00;97929.28;4975778;28;20510;-69
2024/03/06 04:14:40;;;;;;;2.63;0.43;;;;;;;7.04;100.00;97976.16;4955244;28;20093;-70
2024/03/06 04:17:06;;;;;;;1.25;0.40;;;;;;;7.08;100.00;97973.19;4960739;28;20034;-69
2024/03/06 04:19:32;;;;;;;0.80;0.30;;;;;;;6.86;100.00;97929.53;4983181;28;20128;-65
2024/03/06 04:21:59;;;;;;;2.45;0.50;;;;;;;7.04;100.00;97955.50;4972679;28;21096;-62
2024/03/06 04:24:26;;;;;;;1.83;0.30;;;;;;;6.89;100.00;97948.16;4992357;28;20042;-68
2024/03/06 04:26:52;;;;;;;2.38;0.40;;;;;;;6.95;100.00;97967.47;4982241;28;20855;-66
2024/03/06 04:29:19;;;;;;;1.55;0.38;;;;;;;6.80;100.00;97932.66;4982009;28;20038;-66
2024/03/06 04:31:45;;;;;;;2.58;0.68;;;;;;;7.05;100.00;97982.97;4981101;28;20068;-67
2024/03/06 04:34:12;;;;;;;1.20;0.28;;;;;;;7.03;100.00;97985.69;4960264;28;20186;-64
2024/03/06 04:36:40;;;;;;;0.52;0.20;;;;;;;6.94;100.00;97999.44;4978425;28;20042;-65
2024/03/06 04:39:08;;;;;;;0.75;0.30;;;;;;;6.98;100.00;97994.81;4986393;28;20034;-65
2024/03/06 04:41:36;;;;;;;0.65;0.30;;;;;;;6.85;100.00;97967.47;4978380;28;20065;-66
2024/03/06 04:44:01;;;;;;;1.38;0.40;;;;;;;7.09;100.00;98008.41;4980389;28;20046;-65
2024/03/06 04:46:30;;;;;;;2.05;0.65;;;;;;;6.99;100.00;97999.84;4975582;28;20072;-68
2024/03/06 04:48:55;;;;;;;1.73;0.43;;;;;;;7.00;100.00;98013.59;4979526;28;20041;-65
2024/03/06 04:51:20;;;;;;;1.35;0.40;;;;;;;7.00;100.00;98013.59;4982561;28;20048;-66
2024/03/06 04:53:46;;;;;;;0.60;0.38;;;;;;;6.76;100.00;97972.66;4973425;28;20049;-65
2024/03/06 04:56:12;;;;;;;1.73;0.40;;;;;;;6.98;100.00;97993.03;4979437;28;20148;-64
2024/03/06 04:58:45;;;;;;;2.05;0.50;;;;;;;7.01;100.00;97977.28;4977677;28;20033;-66
2024/03/06 05:01:14;;;;;;;1.50;0.40;;;;;;;7.34;100.00;98002.78;4974588;28;20033;-66
2024/03/06 05:03:39;;;;;;;1.50;0.40;;;;;;;7.34;100.00;98016.56;4962560;28;20428;-65
2024/03/06 05:06:11;;;;;;;0.75;0.30;;;;;;;7.32;100.00;97997.78;4976966;28;20042;-64
2024/03/06 05:08:37;;;;;;;1.30;0.57;;;;;;;7.31;100.00;98001.31;4992786;28;20034;-65
2024/03/06 05:11:03;;;;;;;1.52;0.30;;;;;;;7.34;100.00;98018.31;4961371;28;20631;-65
2024/03/06 05:13:31;;;;;;;0.30;0.20;;;;;;;7.51;100.00;98002.09;4982144;28;20046;-66
2024/03/06 05:15:56;;;;;;;0.25;0.10;;;;;;;7.85;100.00;98048.97;4972951;28;21299;-66
2024/03/06 05:18:24;;;;;;;0.10;0.10;;;;;;;7.83;100.00;98073.34;4982078;28;20033;-65
2024/03/06 05:20:49;;;;;;;1.65;0.40;;;;;;;7.60;100.00;98054.78;4970746;28;20041;-65
2024/03/06 05:23:17;;;;;;;0.50;0.20;;;;;;;7.81;100.00;98080.44;4952129;28;20057;-65
2024/03/06 05:25:43;;;;;;;0.70;0.22;;;;;;;7.58;100.00;98083.38;4966689;28;20030;-64
2024/03/06 05:28:10;;;;;;;0.65;0.20;;;;;;;7.49;100.00;98087.59;4973805;28;20633;-65
2024/03/06 05:30:38;;;;;;;0.52;0.15;;;;;;;7.17;100.00;98074.13;4999784;28;20041;-66
2024/03/06 05:33:06;;;;;;;0.20;0.10;;;;;;;7.30;100.00;98090.19;4978341;28;20710;-64
2024/03/06 05:35:34;;;;;;;1.08;0.20;;;;;;;7.33;100.00;98108.03;4973096;28;20034;-64
2024/03/06 05:37:59;;;;;;;0.57;0.20;;;;;;;7.03;100.00;98077.94;4974207;28;20042;-66
2024/03/06 05:40:25;;;;;;;1.08;0.25;;;;;;;7.09;100.00;98082.56;4992626;28;20034;-63
2024/03/06 05:42:51;;;;;;;0.30;0.20;;;;;;;7.28;100.00;98108.44;4957914;28;20042;-64
2024/03/06 05:45:16;;;;;;;1.08;0.30;;;;;;;7.04;100.00;98054.53;4961315;28;20034;-65
2024/03/06 05:47:44;;;;;;;0.45;0.20;;;;;;;7.40;100.00;98118.66;4963064;28;20041;-67
2024/03/06 05:50:10;;;;;;;0.47;0.20;;;;;;;7.46;100.00;98123.25;4967273;28;20432;-66
2024/03/06 05:52:40;;;;;;;0.30;0.20;;;;;;;7.47;100.00;98169.69;4979765;28;20061;-65
2024/03/06 05:55:09;;;;;;;0.17;0.10;;;;;;;7.33;100.00;98066.63;4977252;28;20045;-66
2024/03/06 05:57:37;;;;;;;0.28;0.20;;;;;;;7.18;100.00;98065.44;4971137;28;20033;-65
2024/03/06 06:00:05;;;;;;;0.65;0.20;;;;;;;7.28;100.00;98113.63;4974020;28;20029;-65
2024/03/06 06:02:33;;;;;;;2.05;0.43;;;;;;;7.40;100.00;98142.72;4963424;28;20176;-66
2024/03/06 06:04:59;;;;;;;0.40;0.20;;;;;;;7.42;100.00;98153.75;4958448;28;20038;-68
2024/03/06 06:07:24;;;;;;;0.20;0.20;;;;;;;7.38;100.00;98152.41;4961145;28;20066;-66
2024/03/06 06:09:54;;;;;;;1.17;0.43;;;;;;;7.04;100.00;98144.19;4993985;28;20053;-66
2024/03/06 06:12:22;;;;;;;0.70;0.30;;;;;;;7.03;100.00;98135.63;4974046;28;20120;-62
2024/03/06 06:14:49;;;;;;;0.65;0.20;;;;;;;7.01;100.00;98126.34;4960444;28;20100;-62
2024/03/06 06:17:17;;;;;;;0.38;0.17;;;;;;;7.08;100.00;98125.72;4972653;28;20253;-63
2024/03/06 06:19:43;;;;;;;0.70;0.22;;;;;;;7.10;100.00;98126.41;4981526;28;20041;-61
2024/03/06 06:22:12;;;;;;;1.02;0.28;;;;;;;7.18;100.00;98120.53;4949185;28;20631;-61
2024/03/06 06:24:40;;;;;;;1.02;0.25;;;;;;;7.16;100.00;98095.78;4975997;28;20049;-61
2024/03/06 06:27:08;;;;;;;0.82;0.30;;;;;;;7.18;100.00;98110.19;4979164;28;20148;-61
2024/03/06 06:29:34;;;;;;;0.35;0.20;;;;;;;7.17;100.00;98141.34;4960966;28;20042;-63
2024/03/06 06:32:01;;;;;;;1.92;0.57;;;;;;;6.83;100.00;98152.88;4994269;28;20088;-64
2024/03/06 06:34:27;;;;;;;0.32;0.20;;;;;;;6.93;100.00;98152.88;4975994;28;20042;-61
2024/03/06 06:36:53;;;;;;;0.98;0.30;;;;;;;6.97;100.00;98136.16;4961104;28;20045;-65
2024/03/06 06:39:21;;;;;;;2.25;0.35;;;;;;;7.06;100.00;98157.81;4963917;28;20097;-63
2024/03/06 06:41:47;;;;;;;0.57;0.20;;;;;;;7.02;100.00;98167.59;4966879;28;20065;-64
2024/03/06 06:44:12;;;;;;;2.83;0.47;;;;;;;6.90;100.00;98179.00;4966151;28;20545;-65
2024/03/06 06:46:39;;;;;;;1.60;0.40;;;;;;;6.80;100.00;98168.63;4950008;28;20042;-65
2024/03/06 06:49:04;;;;;;;1.63;0.40;;;;;;;6.94;100.00;98167.44;4979333;28;20046;-65
2024/03/06 06:51:29;;;;;;;1.42;0.43;;;;;;;7.01;100.00;98175.47;4960269;28;20045;-66
2024/03/06 06:53:55;;;;;;;0.70;0.30;;;;;;;6.91;100.00;98173.69;4969273;28;20042;-63
2024/03/06 06:56:23;;;;;;;1.33;0.40;;;;;;;7.02;100.00;98162.41;4973614;28;20041;-64
2024/03/06 06:58:49;;;;;;;1.50;0.43;;;;;;;7.05;100.00;98157.00;4977188;28;20466;-65
2024/03/06 07:01:18;;;;;;;1.50;0.50;;;;;;;7.13;100.00;98143.38;4958704;28;20031;-65
2024/03/06 07:03:43;;;;;;;0.88;0.38;;;;;;;7.06;100.00;98144.88;4967552;28;20050;-67
2024/03/06 07:06:08;;;;;;;0.57;0.22;;;;;;;6.92;100.00;98100.38;4977946;28;20034;-63
2024/03/06 07:08:37;;;;;;;1.98;0.40;;;;;;;7.10;100.00;98128.97;4975189;28;20038;-64
2024/03/06 07:11:02;;;;;;;1.15;0.35;;;;;;;7.18;100.00;98110.19;4978547;28;20031;-62
2024/03/06 07:13:30;;;;;;;2.17;0.40;;;;;;;7.17;100.00;98102.56;4976577;28;20045;-64
2024/03/06 07:15:56;;;;;;;1.30;0.35;;;;;;;7.00;100.00;98117.78;4972263;28;20121;-66
2024/03/06 07:18:21;;;;;;;1.17;0.30;;;;;;;6.98;100.00;98124.06;4990180;28;20791;-66
2024/03/06 07:20:47;;;;;;;1.60;0.50;;;;;;;6.95;100.00;98145.00;4964356;28;20486;-67
2024/03/06 07:23:15;;;;;;;1.40;0.45;;;;;;;6.86;100.00;98144.03;4953791;28;20098;-66
2024/03/06 07:25:40;;;;;;;0.95;0.30;;;;;;;6.97;100.00;98161.19;4994124;28;20149;-67
2024/03/06 07:28:05;;;;;;;0.73;0.30;;;;;;;6.73;100.00;98108.09;4978856;28;20049;-67
2024/03/06 07:30:31;;;;;;;1.13;0.30;;;;;;;7.07;100.00;98142.16;4970152;28;20500;-66
2024/03/06 07:32:59;;;;;;;1.02;0.30;;;;;;;7.00;100.00;98151.41;4960890;28;20038;-65
2024/03/06 07:35:24;;;;;;;3.33;0.40;;;;;;;6.99;100.00;98142.03;4973359;28;20050;-66
2024/03/06 07:37:52;;;;;;;3.15;0.43;;;;;;;6.91;100.00;98119.41;4991939;28;20142;-67
2024/03/06 07:40:19;;;;;;;3.17;0.40;;;;;;;7.18;100.00;98124.91;4974003;28;20030;-66
2024/03/06 07:42:45;;;;;;;1.23;0.40;;;;;;;7.22;100.00;98126.25;4940263;28;20050;-67
2024/03/06 07:45:11;;;;;;;2.60;0.50;;;;;;;7.14;100.00;98132.13;4956088;28;20101;-65
2024/03/06 07:47:37;;;;;;;0.43;0.20;;;;;;;7.32;100.00;98138.25;4959091;28;20045;-67
2024/03/06 07:50:05;;;;;;;1.05;0.30;;;;;;;7.36;100.00;98132.81;4961822;28;20121;-67
2024/03/06 07:52:31;;;;;;;0.82;0.28;;;;;;;7.42;100.00;98132.25;4941986;28;20042;-67
2024/03/06 07:54:57;;;;;;;1.92;0.47;;;;;;;7.18;100.00;98107.63;4963848;28;20437;-66
2024/03/06 07:57:22;;;;;;;3.28;0.60;;;;;;;7.35;100.00;98141.50;4959019;28;20042;-64
2024/03/06 07:59:51;;;;;;;3.03;0.60;;;;;;;7.38;100.00;98134.31;4952741;28;20172;-67
2024/03/06 08:02:17;;;;;;;6.15;1.17;;;;;;;7.32;100.00;98150.38;4958057;28;20070;-67
2024/03/06 08:04:42;;;;;;;2.03;0.63;;;;;;;7.34;100.00;98150.22;4949853;28;20126;-66
2024/03/06 08:07:08;;;;;;;2.33;0.50;;;;;;;7.04;100.00;98106.22;4950264;28;20125;-64
2024/03/06 08:09:33;;;;;;;4.20;0.45;;;;;;;7.24;100.00;98155.38;4961119;28;20061;-66
2024/03/06 08:11:58;;;;;;;3.45;0.60;;;;;;;7.32;100.00;98156.34;4958562;28;20130;-64
2024/03/06 08:14:24;;;;;;;2.92;0.80;;;;;;;7.32;100.00;98152.97;4971424;28;20378;-67
2024/03/06 08:16:50;;;;;;;1.90;0.60;;;;;;;7.37;100.00;98158.50;4960016;28;20057;-65
2024/03/06 08:19:17;;;;;;;1.38;0.50;;;;;;;7.20;100.00;98113.47;4958374;28;20065;-65
2024/03/06 08:21:46;;;;;;;1.50;0.50;;;;;;;7.35;100.00;98119.03;4962225;28;20132;-65
2024/03/06 08:24:11;;;;;;;1.88;0.40;;;;;;;7.60;100.00;98184.94;4958161;28;20129;-64
2024/03/06 08:26:39;;;;;;;1.95;0.60;;;;;;;7.32;100.00;98150.38;4960510;28;20042;-63
2024/03/06 08:29:05;;;;;;;1.88;0.52;;;;;;;7.40;100.00;98155.66;4959556;28;20038;-66
2024/03/06 08:31:33;;;;;;;2.03;0.50;;;;;;;7.73;100.00;98207.97;4953405;28;20050;-65
2024/03/06 08:33:58;;;;;;;0.95;0.38;;;;;;;7.83;100.00;98211.38;4957870;28;20046;-66
2024/03/06 08:36:24;;;;;;;0.98;0.28;;;;;;;7.59;100.00;98188.47;4953303;28;20042;-67
2024/03/06 08:38:52;;;;;;;2.70;0.80;;;;;;;7.82;100.00;98227.84;4962324;28;20063;-66
2024/03/06 08:41:17;;;;;;;2.55;0.80;;;;;;;7.77;100.00;98230.03;4964309;28;20058;-65
2024/03/06 08:43:43;;;;;;;3.70;0.88;;;;;;;7.69;100.00;98237.66;4998645;28;20904;-65
2024/03/06 08:46:12;;;;;;;5.25;0.80;;;;;;;7.72;100.00;98241.75;4982874;28;20038;-65
2024/03/06 08:48:38;;;;;;;3.50;0.80;;;;;;;7.89;100.00;98246.25;4992206;28;20038;-66
2024/03/06 08:51:10;;;;;;;3.53;0.80;;;;;;;7.95;100.00;98245.69;4976064;28;20084;-64
2024/03/06 08:53:35;;;;;;;3.55;1.00;;;;;;;7.67;100.00;98193.00;4965104;28;20046;-65
2024/03/06 08:56:01;;;;;;;3.50;0.80;;;;;;;7.93;100.00;98241.63;4996109;28;20594;-64
2024/03/06 08:58:26;;;;;;;3.17;0.70;;;;;;;7.74;100.00;98201.00;4977093;28;20033;-65
2024/03/06 09:00:51;;;;;;;2.25;0.70;;;;;;;7.98;100.00;98249.81;4975766;28;20045;-64
2024/03/06 09:03:17;;;;;;;1.80;0.60;;;;;;;8.05;100.00;98251.69;4975953;28;20172;-66
2024/03/06 09:05:45;;;;;;;2.05;0.70;;;;;;;8.12;100.00;98251.13;4960078;28;20043;-65
2024/03/06 09:08:12;;;;;;;3.58;0.90;;;;;;;8.17;100.00;98254.13;4977495;28;20154;-65
2024/03/06 09:10:38;;;;;;;1.83;0.60;;;;;;;7.82;100.00;98214.09;4956700;28;20049;-64
2024/03/06 09:13:03;;;;;;;2.88;0.70;;;;;;;8.08;100.00;98258.34;4972501;28;20037;-64
2024/03/06 09:15:29;;;;;;;2.38;0.57;;;;;;;8.13;100.00;98253.59;4982733;28;20059;-64
2024/03/06 09:17:59;;;;;;;3.30;0.70;;;;;;;8.23;100.00;98250.97;4994210;28;20050;-68
2024/03/06 09:20:27;;;;;;;2.30;0.75;;;;;;;8.37;100.00;98255.72;4982058;28;20124;-67
2024/03/06 09:22:56;;;;;;;2.50;0.80;;;;;;;8.43;100.00;98255.22;4972288;28;20796;-66
2024/03/06 09:25:22;;;;;;;1.75;0.60;;;;;;;8.38;100.00;98267.75;4983897;28;20041;-65
2024/03/06 09:27:50;;;;;;;2.17;0.75;;;;;;;8.38;100.00;98267.75;4968083;28;20038;-65
2024/03/06 09:30:17;;;;;;;2.28;0.60;;;;;;;8.40;100.00;98265.81;4975515;28;20541;-64
2024/03/06 09:32:44;;;;;;;2.40;0.70;;;;;;;8.51;100.00;98266.66;4973476;28;20034;-66
2024/03/06 09:35:17;;;;;;;4.32;0.82;;;;;;;8.65;100.00;98280.00;4979827;28;20053;-66
2024/03/06 09:37:46;;;;;;;2.45;0.70;;;;;;;8.68;100.00;98270.31;4961082;28;20634;-65
2024/03/06 09:40:20;;;;;;;2.45;0.70;;;;;;;8.75;100.00;98274.78;4971492;28;20061;-67
2024/03/06 09:42:45;;;;;;;3.85;0.90;;;;;;;8.76;100.00;98275.59;4976008;28;20026;-66
2024/03/06 09:45:10;;;;;;;3.25;0.73;;;;;;;8.83;100.00;98266.28;4965085;28;20096;-65
2024/03/06 09:47:39;;;;;;;2.33;0.70;;;;;;;8.82;100.00;98246.53;4974350;28;20035;-64
2024/03/06 09:50:08;;;;;;;2.42;0.80;;;;;;;8.80;100.00;98227.69;4960944;28;20562;-65
2024/03/06 09:52:36;;;;;;;2.25;0.60;;;;;;;8.96;100.00;98277.16;4958901;28;20026;-66
2024/03/06 09:55:09;;;;;;;1.58;0.60;;;;;;;8.99;100.00;98273.47;4976259;28;20046;-64
2024/03/06 09:57:35;;;;;;;2.13;0.75;;;;;;;8.94;100.00;98292.03;4975265;28;20026;-65
2024/03/06 10:00:06;;;;;;;1.48;0.50;;;;;;;8.88;100.00;98284.03;4988431;28;20041;-65
2024/03/06 10:02:37;;;;;;;2.30;0.70;;;;;;;8.87;100.00;98290.16;4972548;28;20033;-65
2024/03/06 10:05:03;;;;;;;2.33;0.60;;;;;;;8.70;100.00;98289.94;4976811;28;20125;-65
2024/03/06 10:07:28;;;;;;;3.38;0.75;;;;;;;8.75;100.00;98305.06;4971500;28;20114;-65
2024/03/06 10:09:55;;;;;;;3.10;0.75;;;;;;;8.64;100.00;98301.69;4974683;28;20193;-64
2024/03/06 10:12:21;;;;;;;2.85;1.02;;;;;;;8.59;100.00;98292.69;4977945;28;20034;-63
2024/03/06 10:14:52;;;;;;;2.85;0.98;;;;;;;8.66;100.00;98299.75;4980232;28;20181;-64
2024/03/06 10:17:26;;;;;;;3.55;0.85;;;;;;;8.65;100.00;98292.97;4990926;28;20069;-64
2024/03/06 10:19:52;;;;;;;2.85;0.80;;;;;;;8.63;100.00;98307.00;4978385;28;20065;-65
2024/03/06 10:22:20;;;;;;;3.90;1.30;;;;;;;8.39;100.00;98255.59;4969680;28;20080;-63
2024/03/06 10:24:46;;;;;;;5.85;1.13;;;;;;;8.63;100.00;98281.91;4958555;28;20046;-64
2024/03/06 10:27:17;;;;;;;2.92;1.08;;;;;;;8.70;100.00;98286.53;4978282;28;20034;-64
2024/03/06 10:29:45;;;;;;;3.88;1.10;;;;;;;8.69;100.00;98285.72;4980846;28;20042;-64
2024/03/06 10:32:17;;;;;;;2.97;0.95;;;;;;;8.63;100.00;98288.84;4984866;28;20038;-65
2024/03/06 10:34:44;;;;;;;2.45;0.85;;;;;;;8.60;100.00;98282.19;4980265;28;20084;-67
2024/03/06 10:37:10;;;;;;;3.67;1.25;;;;;;;8.54;100.00;98282.75;4999779;28;20052;-64
2024/03/06 10:39:44;;;;;;;4.10;0.90;;;;;;;8.59;100.00;98284.91;4970813;28;20034;-64
2024/03/06 10:42:12;;;;;;;4.55;1.20;;;;;;;8.58;100.00;98281.50;4969935;28;20046;-63
2024/03/06 10:44:43;;;;;;;4.72;1.25;;;;;;;8.41;100.00;98256.28;4958185;28;20033;-65
2024/03/06 10:47:09;;;;;;;3.25;1.10;;;;;;;8.71;100.00;98298.53;4960858;28;20038;-65
2024/03/06 10:49:35;;;;;;;4.30;1.13;;;;;;;8.38;100.00;98253.97;4983629;28;20048;-64
2024/03/06 10:52:05;;;;;;;2.75;0.90;;;;;;;8.62;100.00;98313.97;4977389;28;20037;-63
2024/03/06 10:54:38;;;;;;;3.42;1.00;;;;;;;8.68;100.00;98301.41;4984811;28;20045;-64
2024/03/06 10:57:04;;;;;;;3.50;1.27;;;;;;;8.76;100.00;98304.09;4955996;28;20066;-64
2024/03/06 10:59:30;;;;;;;3.65;1.10;;;;;;;8.74;100.00;98299.03;4994803;28;20049;-65
2024/03/06 11:01:56;;;;;;;4.80;1.73;;;;;;;8.75;100.00;98305.06;4977122;28;20046;-65
2024/03/06 11:04:28;;;;;;;2.75;0.90;;;;;;;8.61;100.00;98278.63;4976047;28;20073;-63
2024/03/06 11:06:54;;;;;;;3.00;0.95;;;;;;;8.78;100.00;98302.19;4960116;28;20054;-63
2024/03/06 11:09:22;;;;;;;4.63;1.02;;;;;;;8.87;100.00;98295.34;4980640;28;20350;-64
2024/03/06 11:11:49;;;;;;;3.80;1.27;;;;;;;8.91;100.00;98283.72;4959126;28;20721;-66
2024/03/06 11:14:17;;;;;;;4.47;1.40;;;;;;;9.11;100.00;98297.44;4962938;28;20470;-64
2024/03/06 11:17:01;;;;;;;4.28;1.27;;;;;;;8.85;100.00;98243.63;4977833;28;20042;-64
2024/03/06 11:19:27;;;;;;;3.17;0.93;;;;;;;9.17;100.00;98282.13;4993735;28;20034;-64
2024/03/06 11:21:52;;;;;;;3.13;1.17;;;;;;;9.24;100.00;98275.41;4981938;28;20041;-64
2024/03/06 11:24:40;;;;;;;5.43;1.30;;;;;;;9.49;100.00;98293.00;5000725;28;20544;-63
2024/03/06 11:27:07;;;;;;;3.35;1.00;;;;;;;9.50;100.00;98281.69;4991823;28;20050;-64
2024/03/06 11:30:16;;;;;;;3.50;1.10;;;;;;;9.67;100.00;98283.47;4985804;28;20140;-63
2024/03/06 11:33:13;;;;;;;3.22;0.95;;;;;;;9.83;100.00;98282.81;5004562;28;20060;-65
2024/03/06 11:35:43;;;;;;;3.03;0.90;;;;;;;9.98;100.00;98273.56;4971333;28;20069;-64